Time;durP1;ratioP1;P1;durP2;ratioP2;P2;SDS_P1;SDS_P2;PMS_P1;PMS_P2;Temp;Humidity;BMP_temperature;BMP_pressure;BME280_temperature;BME280_humidity;BME280_pressure;Samples;Min_cycle;Max_cycle;Signal;HPM_P1;HPM_P2
2021/10/09 00:01:07;;;;;;;8.80;5.68;;;;;;;;;;6222734;23;20698;-93
2021/10/09 00:03:34;;;;;;;8.50;5.95;;;;;;;;;;6210775;23;20370;-92
2021/10/09 00:06:02;;;;;;;6.63;5.95;;;;;;;;;;6213742;23;20381;-92
2021/10/09 00:08:31;;;;;;;7.13;5.93;;;;;;;;;;6209025;23;20671;-93
2021/10/09 00:10:58;;;;;;;7.97;5.90;;;;;;;;;;6206982;23;20913;-93
2021/10/09 00:13:25;;;;;;;6.50;5.82;;;;;;;;;;6206043;23;20779;-93
2021/10/09 00:15:52;;;;;;;7.28;5.78;;;;;;;;;;6206895;23;20858;-92
2021/10/09 00:18:19;;;;;;;8.75;6.40;;;;;;;;;;6181168;23;20420;-92
2021/10/09 00:20:45;;;;;;;9.43;6.57;;;;;;;;;;6207086;23;20521;-92
2021/10/09 00:23:14;;;;;;;8.82;7.03;;;;;;;;;;6207645;23;20357;-93
2021/10/09 00:25:41;;;;;;;9.48;7.50;;;;;;;;;;6206948;23;20374;-92
2021/10/09 00:28:08;;;;;;;9.48;7.57;;;;;;;;;;6207693;23;20362;-93
2021/10/09 00:30:35;;;;;;;10.25;6.97;;;;;;;;;;6207371;23;20377;-93
2021/10/09 00:33:02;;;;;;;9.05;7.20;;;;;;;;;;6207113;23;20385;-92
2021/10/09 00:35:28;;;;;;;8.45;7.13;;;;;;;;;;6206672;23;20420;-92
2021/10/09 00:37:55;;;;;;;9.37;6.57;;;;;;;;;;6206737;23;20373;-91
2021/10/09 00:40:24;;;;;;;11.50;6.78;;;;;;;;;;6206838;23;20447;-92
2021/10/09 00:42:51;;;;;;;8.83;7.10;;;;;;;;;;6206996;23;20370;-93
2021/10/09 00:45:17;;;;;;;9.60;6.78;;;;;;;;;;6207363;23;20697;-93
2021/10/09 00:47:44;;;;;;;8.35;6.93;;;;;;;;;;6206752;23;20358;-91
2021/10/09 00:50:11;;;;;;;10.20;7.05;;;;;;;;;;6207214;23;20370;-92
2021/10/09 00:52:40;;;;;;;8.93;6.75;;;;;;;;;;6207478;23;20493;-92
2021/10/09 00:55:08;;;;;;;9.85;6.57;;;;;;;;;;6207143;23;20377;-92
2021/10/09 00:57:40;;;;;;;8.60;6.93;;;;;;;;;;6180824;23;20375;-92
2021/10/09 01:00:08;;;;;;;9.27;6.80;;;;;;;;;;6180908;23;20370;-93
2021/10/09 01:02:37;;;;;;;11.77;7.35;;;;;;;;;;6207277;23;20366;-92
2021/10/09 01:05:05;;;;;;;11.40;7.45;;;;;;;;;;6206087;23;20369;-93
2021/10/09 01:07:32;;;;;;;9.38;7.40;;;;;;;;;;6206796;23;20369;-92
2021/10/09 01:10:00;;;;;;;9.32;7.15;;;;;;;;;;6206354;23;20380;-92
2021/10/09 01:12:27;;;;;;;9.07;6.93;;;;;;;;;;6206948;23;20382;-92
2021/10/09 01:14:56;;;;;;;11.18;7.63;;;;;;;;;;6207488;23;20362;-92
2021/10/09 01:17:23;;;;;;;9.02;7.25;;;;;;;;;;6206731;23;20842;-92
2021/10/09 01:19:49;;;;;;;10.32;7.72;;;;;;;;;;6206575;23;20862;-93
2021/10/09 01:22:18;;;;;;;11.15;7.88;;;;;;;;;;6206751;23;20427;-93
2021/10/09 01:24:44;;;;;;;10.07;7.50;;;;;;;;;;6206463;23;20366;-94
2021/10/09 01:27:15;;;;;;;11.38;7.38;;;;;;;;;;6206681;23;20362;-94
2021/10/09 01:29:42;;;;;;;9.13;6.93;;;;;;;;;;6206417;23;20373;-94
2021/10/09 01:32:09;;;;;;;11.52;7.60;;;;;;;;;;6206362;23;20365;-94
2021/10/09 01:34:36;;;;;;;11.18;7.68;;;;;;;;;;6206600;23;20861;-94
2021/10/09 01:37:03;;;;;;;9.65;7.68;;;;;;;;;;6205928;23;20698;-93
2021/10/09 01:39:31;;;;;;;9.87;7.80;;;;;;;;;;6206274;23;20376;-94
2021/10/09 01:41:58;;;;;;;8.80;7.35;;;;;;;;;;6206976;23;20432;-94
2021/10/09 01:44:25;;;;;;;11.30;7.80;;;;;;;;;;6206126;23;20408;-94
2021/10/09 01:46:52;;;;;;;11.93;8.20;;;;;;;;;;6206733;23;20929;-95
2021/10/09 01:49:19;;;;;;;9.35;7.45;;;;;;;;;;6180072;23;20877;-95
2021/10/09 01:51:46;;;;;;;12.13;7.97;;;;;;;;;;6205992;23;20373;-94
2021/10/09 01:54:12;;;;;;;10.25;7.40;;;;;;;;;;6206503;23;20412;-93
2021/10/09 01:56:41;;;;;;;11.27;7.18;;;;;;;;;;6206295;23;20362;-94
2021/10/09 01:59:09;;;;;;;9.50;6.90;;;;;;;;;;6206173;23;20358;-94
2021/10/09 02:01:36;;;;;;;12.50;7.20;;;;;;;;;;6204080;23;20746;-94
2021/10/09 02:04:03;;;;;;;10.18;7.25;;;;;;;;;;6205563;23;20362;-93
2021/10/09 02:06:30;;;;;;;9.52;7.65;;;;;;;;;;6205708;23;20420;-93
2021/10/09 02:08:57;;;;;;;10.90;7.57;;;;;;;;;;6205152;23;20370;-91
2021/10/09 02:11:27;;;;;;;10.50;7.53;;;;;;;;;;6178091;23;20424;-94
2021/10/09 02:14:01;;;;;;;9.02;6.75;;;;;;;;;;6206286;23;20746;-94
2021/10/09 02:25:14;;;;;;;8.40;6.70;;;;;;;;;;6206747;23;20448;-94
2021/10/09 02:27:41;;;;;;;8.85;6.80;;;;;;;;;;6206497;23;20722;-94
2021/10/09 02:30:10;;;;;;;9.45;7.10;;;;;;;;;;6206981;23;20429;-94
2021/10/09 02:32:37;;;;;;;9.82;7.03;;;;;;;;;;6206418;23;21286;-94
2021/10/09 02:35:05;;;;;;;9.05;7.03;;;;;;;;;;6206302;23;20412;-94
2021/10/09 02:37:32;;;;;;;9.00;7.00;;;;;;;;;;6206460;23;20365;-93
2021/10/09 02:40:00;;;;;;;9.60;7.25;;;;;;;;;;6206949;23;20412;-94
2021/10/09 02:42:27;;;;;;;10.10;7.28;;;;;;;;;;6179736;23;20366;-94
2021/10/09 02:44:54;;;;;;;9.25;7.05;;;;;;;;;;6206428;23;20370;-94
2021/10/09 02:47:22;;;;;;;8.98;6.78;;;;;;;;;;6206595;23;20361;-93
2021/10/09 02:49:49;;;;;;;9.98;6.90;;;;;;;;;;6206358;23;20369;-93
2021/10/09 02:52:16;;;;;;;9.00;6.60;;;;;;;;;;6205380;23;20366;-94
2021/10/09 02:54:43;;;;;;;8.68;7.20;;;;;;;;;;6207231;23;20361;-94
2021/10/09 02:57:09;;;;;;;8.68;6.88;;;;;;;;;;6206631;23;20366;-93
2021/10/09 02:59:36;;;;;;;10.45;6.80;;;;;;;;;;6205933;23;20420;-94
2021/10/09 03:02:03;;;;;;;7.70;6.53;;;;;;;;;;6207988;23;20718;-94
2021/10/09 03:04:31;;;;;;;8.63;6.47;;;;;;;;;;6207275;23;20377;-94
2021/10/09 03:06:58;;;;;;;9.43;6.70;;;;;;;;;;6208481;23;20757;-94
2021/10/09 03:09:25;;;;;;;8.48;6.28;;;;;;;;;;6181224;23;20368;-94
2021/10/09 03:11:53;;;;;;;8.02;6.22;;;;;;;;;;6208109;23;20365;-93
2021/10/09 03:14:20;;;;;;;8.65;6.20;;;;;;;;;;6181641;23;20416;-92
2021/10/09 03:16:47;;;;;;;8.85;6.22;;;;;;;;;;6209333;23;20367;-92
2021/10/09 03:19:13;;;;;;;8.00;6.37;;;;;;;;;;6207326;23;20733;-92
2021/10/09 03:21:42;;;;;;;9.30;6.82;;;;;;;;;;6208134;23;20377;-92
2021/10/09 03:24:09;;;;;;;11.45;6.72;;;;;;;;;;6208844;23;20370;-93
2021/10/09 03:26:36;;;;;;;8.93;6.90;;;;;;;;;;6207850;23;20381;-91
2021/10/09 03:29:03;;;;;;;10.40;6.72;;;;;;;;;;6208503;23;20476;-92
2021/10/09 03:31:30;;;;;;;9.67;6.40;;;;;;;;;;6208020;23;20734;-92
2021/10/09 03:33:56;;;;;;;8.43;6.90;;;;;;;;;;6207729;23;20382;-92
2021/10/09 03:36:23;;;;;;;9.52;6.22;;;;;;;;;;6208917;23;20866;-92
2021/10/09 03:38:52;;;;;;;9.52;6.72;;;;;;;;;;6208483;23;20361;-92
2021/10/09 03:41:18;;;;;;;8.35;6.00;;;;;;;;;;6207509;23;20847;-92
2021/10/09 03:43:46;;;;;;;8.50;5.88;;;;;;;;;;6182374;23;20377;-92
2021/10/09 03:46:15;;;;;;;8.50;6.15;;;;;;;;;;6208152;23;20376;-92
2021/10/09 03:48:53;;;;;;;8.43;6.00;;;;;;;;;;6207772;23;20402;-92
2021/10/09 03:54:05;;;;;;;8.18;5.97;;;;;;;;;;6208025;23;20405;-92
2021/10/09 03:56:32;;;;;;;8.52;6.07;;;;;;;;;;6207494;23;20377;-92
2021/10/09 03:59:00;;;;;;;7.85;6.18;;;;;;;;;;6208397;23;20350;-92
2021/10/09 04:01:26;;;;;;;8.95;6.30;;;;;;;;;;6207538;23;20376;-93
2021/10/09 04:03:54;;;;;;;8.13;5.95;;;;;;;;;;6207426;23;20623;-93
2021/10/09 04:06:21;;;;;;;8.77;5.95;;;;;;;;;;6205737;23;20370;-92
2021/10/09 04:08:48;;;;;;;6.90;5.80;;;;;;;;;;6206600;23;20922;-93
2021/10/09 04:11:16;;;;;;;6.57;5.50;;;;;;;;;;6207677;23;20362;-93
2021/10/09 04:13:43;;;;;;;8.07;6.10;;;;;;;;;;6207838;23;20386;-92
2021/10/09 04:16:10;;;;;;;9.60;6.13;;;;;;;;;;6207873;23;20682;-92
2021/10/09 04:18:37;;;;;;;7.40;5.80;;;;;;;;;;6207173;23;20377;-93
2021/10/09 04:21:04;;;;;;;8.10;5.72;;;;;;;;;;6207140;23;20366;-92
2021/10/09 04:23:31;;;;;;;9.27;5.95;;;;;;;;;;6207188;23;20682;-92
2021/10/09 04:25:58;;;;;;;8.02;5.45;;;;;;;;;;6206726;23;20382;-92
2021/10/09 04:28:26;;;;;;;8.93;5.88;;;;;;;;;;6206944;23;20842;-92
2021/10/09 04:30:53;;;;;;;7.47;5.57;;;;;;;;;;6207388;23;20366;-92
2021/10/09 04:33:20;;;;;;;8.43;6.10;;;;;;;;;;6206339;23;20374;-93
2021/10/09 04:35:47;;;;;;;7.82;5.80;;;;;;;;;;6207042;23;20412;-92
2021/10/09 04:38:14;;;;;;;10.52;5.80;;;;;;;;;;6206902;23;20366;-92
2021/10/09 04:40:41;;;;;;;6.60;5.88;;;;;;;;;;6206341;23;20374;-92
2021/10/09 04:43:08;;;;;;;7.15;6.07;;;;;;;;;;6207207;23;20358;-92
2021/10/09 04:45:36;;;;;;;7.32;6.07;;;;;;;;;;6180316;23;20381;-92
2021/10/09 04:48:05;;;;;;;8.48;5.45;;;;;;;;;;6207523;23;20366;-92
2021/10/09 04:50:32;;;;;;;7.40;5.60;;;;;;;;;;6205808;23;20393;-93
2021/10/09 04:52:59;;;;;;;6.55;5.20;;;;;;;;;;6207357;23;20366;-92
2021/10/09 04:55:26;;;;;;;7.32;5.35;;;;;;;;;;6206820;23;20358;-92
2021/10/09 04:57:54;;;;;;;6.40;5.22;;;;;;;;;;6181161;23;20366;-92
2021/10/09 05:00:21;;;;;;;8.57;5.63;;;;;;;;;;6181369;23;20366;-93
2021/10/09 05:02:50;;;;;;;10.73;6.03;;;;;;;;;;6207641;23;20358;-92
2021/10/09 05:05:17;;;;;;;9.00;5.65;;;;;;;;;;6206511;23;20358;-92
2021/10/09 05:07:44;;;;;;;7.72;5.65;;;;;;;;;;6204892;23;20687;-91
2021/10/09 05:10:14;;;;;;;7.97;5.78;;;;;;;;;;6206752;23;20370;-92
2021/10/09 05:12:41;;;;;;;7.18;5.72;;;;;;;;;;6207734;23;20864;-93
2021/10/09 05:15:08;;;;;;;8.83;5.77;;;;;;;;;;6181232;23;20404;-91
2021/10/09 05:17:35;;;;;;;8.52;5.88;;;;;;;;;;6207552;23;20381;-93
2021/10/09 05:20:04;;;;;;;7.80;5.90;;;;;;;;;;6209221;23;20366;-92
2021/10/09 05:22:31;;;;;;;7.90;5.82;;;;;;;;;;6205300;23;20374;-91
2021/10/09 05:24:58;;;;;;;8.02;5.70;;;;;;;;;;6204781;23;20408;-90
2021/10/09 05:27:27;;;;;;;7.72;5.75;;;;;;;;;;6180717;23;20366;-92
2021/10/09 05:29:53;;;;;;;10.30;6.35;;;;;;;;;;6207500;23;20449;-90
2021/10/09 05:32:23;;;;;;;9.85;5.93;;;;;;;;;;6206438;23;20362;-92
2021/10/09 05:34:50;;;;;;;7.20;5.55;;;;;;;;;;6202419;23;20382;-92
2021/10/09 05:37:19;;;;;;;7.95;5.72;;;;;;;;;;6205362;23;20369;-91
2021/10/09 05:39:46;;;;;;;8.35;5.70;;;;;;;;;;6204955;23;20472;-91
2021/10/09 05:42:12;;;;;;;8.38;5.93;;;;;;;;;;6204202;23;20619;-92
2021/10/09 05:44:39;;;;;;;10.98;6.10;;;;;;;;;;6204899;23;20358;-93
2021/10/09 05:47:06;;;;;;;7.82;5.75;;;;;;;;;;6206347;23;20861;-92
2021/10/09 05:49:35;;;;;;;8.55;6.05;;;;;;;;;;6204673;23;20534;-92
2021/10/09 05:52:05;;;;;;;9.65;5.93;;;;;;;;;;6205549;23;20689;-92
2021/10/09 05:54:38;;;;;;;7.25;6.05;;;;;;;;;;6205396;23;20388;-92
2021/10/09 05:57:09;;;;;;;9.83;6.37;;;;;;;;;;6205882;23;20807;-93
2021/10/09 07:00:11;;;;;;;11.60;4.90;;;;;;;;;;6208180;23;20365;-93
2021/10/09 07:02:39;;;;;;;8.98;4.80;;;;;;;;;;6206634;23;20370;-93
2021/10/09 07:05:07;;;;;;;8.07;4.53;;;;;;;;;;6207501;23;20457;-92
2021/10/09 07:07:39;;;;;;;9.95;4.85;;;;;;;;;;6208013;23;20420;-94
2021/10/09 07:10:07;;;;;;;5.47;4.43;;;;;;;;;;6207202;23;20380;-93
2021/10/09 07:12:34;;;;;;;8.02;4.70;;;;;;;;;;6207818;23;20369;-93
2021/10/09 07:15:01;;;;;;;6.57;4.60;;;;;;;;;;6207103;23;20416;-93
2021/10/09 07:17:29;;;;;;;5.22;4.30;;;;;;;;;;6207166;23;20385;-92
2021/10/09 07:19:56;;;;;;;6.30;4.43;;;;;;;;;;6207349;23;20358;-94
2021/10/09 07:22:23;;;;;;;11.13;4.63;;;;;;;;;;6207334;23;20377;-92
2021/10/09 07:24:51;;;;;;;6.97;4.60;;;;;;;;;;6207273;23;20370;-93
2021/10/09 07:27:18;;;;;;;10.65;4.63;;;;;;;;;;6207539;23;20365;-93
2021/10/09 07:29:45;;;;;;;11.85;4.53;;;;;;;;;;6207539;23;20680;-93
2021/10/09 07:32:12;;;;;;;7.68;4.40;;;;;;;;;;6207357;23;20375;-93
2021/10/09 07:34:40;;;;;;;8.90;4.47;;;;;;;;;;6207354;23;20694;-93
2021/10/09 07:37:08;;;;;;;7.85;4.30;;;;;;;;;;6207760;23;20373;-94
2021/10/09 07:39:35;;;;;;;8.25;4.40;;;;;;;;;;6207368;23;20374;-94
2021/10/09 07:42:03;;;;;;;6.82;4.47;;;;;;;;;;6205566;23;20358;-92
2021/10/09 07:44:30;;;;;;;7.95;4.35;;;;;;;;;;6206985;23;20366;-88
2021/10/09 07:46:56;;;;;;;8.47;4.40;;;;;;;;;;6207422;23;20354;-92
2021/10/09 07:49:24;;;;;;;6.70;4.30;;;;;;;;;;6206210;23;21187;-92
2021/10/09 07:51:52;;;;;;;7.40;4.45;;;;;;;;;;6206878;23;20366;-93
2021/10/09 07:54:23;;;;;;;7.43;4.25;;;;;;;;;;6207418;23;20377;-96
2021/10/09 08:51:33;;;;;;;7.70;5.50;;;;;;;;;;6209491;23;20430;-96
2021/10/09 08:54:07;;;;;;;7.80;4.47;;;;;;;;;;6204108;23;20351;-96
2021/10/09 09:07:21;;;;;;;10.73;4.57;;;;;;;;;;6123548;22;20416;-86
2021/10/09 09:41:49;;;;;;;7.30;3.80;;;;;;;;;;6168140;22;20354;-96
2021/10/09 09:44:25;;;;;;;7.87;3.80;;;;;;;;;;6214897;23;20349;-96
2021/10/09 09:47:03;;;;;;;5.90;3.85;;;;;;;;;;6216300;23;20365;-95
2021/10/09 09:49:31;;;;;;;6.13;4.10;;;;;;;;;;6214946;23;20365;-96
2021/10/09 09:51:59;;;;;;;6.80;3.97;;;;;;;;;;6216054;23;20461;-96
2021/10/09 09:54:28;;;;;;;6.63;3.58;;;;;;;;;;6219073;23;20381;-96
2021/10/09 09:57:17;;;;;;;5.78;3.60;;;;;;;;;;6220828;23;20404;-96
2021/10/09 09:59:46;;;;;;;4.72;3.60;;;;;;;;;;6216887;23;20452;-96
2021/10/09 10:02:16;;;;;;;5.93;3.40;;;;;;;;;;6206326;23;20370;-81
2021/10/09 10:04:42;;;;;;;6.35;3.90;;;;;;;;;;6205130;23;20390;-81
2021/10/09 10:07:10;;;;;;;5.70;3.65;;;;;;;;;;6209118;23;20472;-95
2021/10/09 10:09:38;;;;;;;7.67;4.10;;;;;;;;;;6182531;23;20373;-94
2021/10/09 10:12:07;;;;;;;6.70;3.35;;;;;;;;;;6208567;23;20366;-96
2021/10/09 10:14:34;;;;;;;9.15;4.03;;;;;;;;;;6207195;23;20438;-92
2021/10/09 10:17:01;;;;;;;7.25;3.95;;;;;;;;;;6208301;23;20702;-94
2021/10/09 10:20:00;;;;;;;7.63;3.80;;;;;;;;;;6205065;23;20373;-86
2021/10/09 10:22:58;;;;;;;8.00;3.83;;;;;;;;;;6178135;23;20457;-89
2021/10/09 10:25:35;;;;;;;6.50;3.58;;;;;;;;;;6204701;23;20834;-88
2021/10/09 10:28:06;;;;;;;6.50;3.80;;;;;;;;;;6204713;22;20378;-88
2021/10/09 10:30:34;;;;;;;6.97;3.87;;;;;;;;;;6205331;23;20477;-83
2021/10/09 10:33:37;;;;;;;5.50;3.97;;;;;;;;;;6204484;23;20362;-83
2021/10/09 10:36:04;;;;;;;6.45;3.60;;;;;;;;;;6204605;23;20413;-81
2021/10/09 10:38:45;;;;;;;5.32;3.63;;;;;;;;;;6204565;23;20358;-85
2021/10/09 10:41:16;;;;;;;5.18;3.45;;;;;;;;;;6205502;23;20404;-84
2021/10/09 10:43:47;;;;;;;7.40;4.13;;;;;;;;;;6204574;23;20379;-83
2021/10/09 10:46:39;;;;;;;7.13;3.80;;;;;;;;;;6204379;23;20362;-83
2021/10/09 10:49:11;;;;;;;132.95;69.88;;;;;;;;;;6204638;23;20370;-85
2021/10/09 10:51:51;;;;;;;18.03;9.67;;;;;;;;;;6204446;23;20848;-83
2021/10/09 10:54:35;;;;;;;30.90;19.45;;;;;;;;;;6204343;23;20366;-82
2021/10/09 10:57:21;;;;;;;31.38;12.05;;;;;;;;;;6202478;23;20394;-86
2021/10/09 11:00:02;;;;;;;6.15;4.15;;;;;;;;;;6205193;23;20869;-80
2021/10/09 11:02:36;;;;;;;7.88;3.72;;;;;;;;;;6206008;23;20362;-85
2021/10/09 11:05:05;;;;;;;7.63;3.38;;;;;;;;;;6201059;23;20369;-85
2021/10/09 11:07:33;;;;;;;6.20;3.65;;;;;;;;;;6199306;23;20886;-83
2021/10/09 11:10:06;;;;;;;8.68;4.03;;;;;;;;;;6197539;23;20378;-82
2021/10/09 11:12:34;;;;;;;6.03;3.72;;;;;;;;;;6199088;23;20366;-83
2021/10/09 11:15:19;;;;;;;6.47;3.55;;;;;;;;;;6198803;23;21207;-85
2021/10/09 11:17:47;;;;;;;5.63;3.50;;;;;;;;;;6198616;23;20658;-83
2021/10/09 11:20:21;;;;;;;6.90;3.58;;;;;;;;;;6198614;23;20844;-82
2021/10/09 11:22:50;;;;;;;6.30;3.40;;;;;;;;;;6200852;23;20367;-80
2021/10/09 11:25:29;;;;;;;6.05;3.42;;;;;;;;;;6202423;23;20365;-85
2021/10/09 11:27:57;;;;;;;6.80;3.30;;;;;;;;;;6201919;23;20790;-85
2021/10/09 11:30:26;;;;;;;4.57;3.08;;;;;;;;;;6202189;23;20366;-85
2021/10/09 11:32:55;;;;;;;4.90;3.20;;;;;;;;;;6201648;23;20365;-85
2021/10/09 11:35:33;;;;;;;6.32;3.47;;;;;;;;;;6203085;23;20438;-85
2021/10/09 11:38:03;;;;;;;6.05;3.50;;;;;;;;;;6202213;23;20369;-86
2021/10/09 11:40:32;;;;;;;4.40;3.13;;;;;;;;;;6202893;23;20420;-85
2021/10/09 11:43:08;;;;;;;5.55;3.35;;;;;;;;;;6201423;23;20749;-85
2021/10/09 11:45:47;;;;;;;7.45;3.13;;;;;;;;;;6203025;23;20842;-85
2021/10/09 11:53:51;;;;;;;4.75;3.20;;;;;;;;;;6202783;23;20373;-85
2021/10/09 11:56:20;;;;;;;5.40;3.00;;;;;;;;;;6201709;23;20385;-85
2021/10/09 11:58:48;;;;;;;5.40;3.13;;;;;;;;;;6202711;23;20414;-86
2021/10/09 12:01:37;;;;;;;5.88;2.90;;;;;;;;;;6204217;23;20420;-85
2021/10/09 12:04:14;;;;;;;5.88;2.72;;;;;;;;;;6198816;23;20409;-86
2021/10/09 12:06:43;;;;;;;6.40;3.00;;;;;;;;;;6203640;23;20491;-83
2021/10/09 12:09:10;;;;;;;6.32;3.20;;;;;;;;;;6200444;23;20869;-80
2021/10/09 12:11:37;;;;;;;4.13;2.65;;;;;;;;;;6203652;23;20369;-80
2021/10/09 12:14:05;;;;;;;5.55;2.92;;;;;;;;;;6203445;23;20889;-82
2021/10/09 12:16:35;;;;;;;4.73;3.00;;;;;;;;;;6202746;23;20382;-82
2021/10/09 12:19:05;;;;;;;5.83;2.90;;;;;;;;;;6200153;23;20382;-82
2021/10/09 12:21:33;;;;;;;6.20;3.00;;;;;;;;;;6202026;23;20389;-82
2021/10/09 12:24:00;;;;;;;7.22;3.47;;;;;;;;;;6201152;23;20695;-82
2021/10/09 12:26:28;;;;;;;4.32;3.00;;;;;;;;;;6202394;23;20362;-82
2021/10/09 12:29:19;;;;;;;6.97;3.20;;;;;;;;;;6201714;23;20394;-81
2021/10/09 12:31:48;;;;;;;4.90;2.72;;;;;;;;;;6173367;23;20423;-82
2021/10/09 12:34:32;;;;;;;6.95;2.97;;;;;;;;;;6205250;23;20868;-86
2021/10/09 12:37:22;;;;;;;5.53;3.22;;;;;;;;;;6206277;23;20381;-85
2021/10/09 12:40:07;;;;;;;5.20;3.00;;;;;;;;;;6199108;23;20766;-85
2021/10/09 12:42:34;;;;;;;5.93;3.10;;;;;;;;;;6206332;23;20865;-84
2021/10/09 12:45:01;;;;;;;5.07;2.70;;;;;;;;;;6206469;23;20370;-85
2021/10/09 12:47:30;;;;;;;3.97;2.80;;;;;;;;;;6206553;23;20373;-84
2021/10/09 12:49:56;;;;;;;6.03;3.17;;;;;;;;;;6205309;23;20365;-84
2021/10/09 12:52:23;;;;;;;7.15;2.80;;;;;;;;;;6206046;23;20362;-85
2021/10/09 12:54:50;;;;;;;6.22;2.90;;;;;;;;;;6206061;23;20358;-85
2021/10/09 12:57:17;;;;;;;4.63;2.90;;;;;;;;;;6205647;23;20388;-85
2021/10/09 12:59:44;;;;;;;4.72;2.70;;;;;;;;;;6204402;23;21185;-83
2021/10/09 13:02:10;;;;;;;5.22;2.70;;;;;;;;;;6204700;23;20370;-85
2021/10/09 13:04:39;;;;;;;6.50;2.90;;;;;;;;;;6204406;23;20370;-85
2021/10/09 13:07:07;;;;;;;4.28;3.00;;;;;;;;;;6205189;23;20382;-85
2021/10/09 13:09:33;;;;;;;5.72;2.90;;;;;;;;;;6205351;23;20417;-85
2021/10/09 13:12:02;;;;;;;3.92;2.53;;;;;;;;;;6205008;23;20830;-86
2021/10/09 13:14:29;;;;;;;5.78;2.70;;;;;;;;;;6205066;23;20408;-85
2021/10/09 13:16:56;;;;;;;11.10;2.75;;;;;;;;;;6204835;23;20928;-85
2021/10/09 13:19:23;;;;;;;3.13;2.58;;;;;;;;;;6204593;23;20366;-84
2021/10/09 13:21:51;;;;;;;3.95;2.33;;;;;;;;;;6204075;23;20364;-85
2021/10/09 13:24:18;;;;;;;5.13;2.50;;;;;;;;;;6204637;23;20379;-84
2021/10/09 13:26:45;;;;;;;4.63;2.50;;;;;;;;;;6205497;23;20365;-86
2021/10/09 13:29:12;;;;;;;4.20;2.60;;;;;;;;;;6205556;23;20377;-84
2021/10/09 13:31:39;;;;;;;4.80;2.53;;;;;;;;;;6205650;23;20464;-85
2021/10/09 13:34:06;;;;;;;4.10;2.72;;;;;;;;;;6205180;23;20366;-85
2021/10/09 13:36:33;;;;;;;5.82;2.42;;;;;;;;;;6205036;23;20714;-85
2021/10/09 13:39:01;;;;;;;3.97;2.50;;;;;;;;;;6204975;23;20413;-86
2021/10/09 13:41:28;;;;;;;4.35;2.47;;;;;;;;;;6205258;23;20366;-84
2021/10/09 13:43:55;;;;;;;4.85;2.60;;;;;;;;;;6205460;23;20417;-85
2021/10/09 13:46:27;;;;;;;6.00;2.55;;;;;;;;;;6204175;23;20365;-85
2021/10/09 13:48:54;;;;;;;4.55;2.53;;;;;;;;;;6202386;23;20362;-84
2021/10/09 13:51:21;;;;;;;4.97;2.55;;;;;;;;;;6206232;23;20373;-84
2021/10/09 13:53:47;;;;;;;5.13;2.60;;;;;;;;;;6206376;23;20377;-85
2021/10/09 13:56:16;;;;;;;5.82;2.50;;;;;;;;;;6205580;23;20801;-84
2021/10/09 13:58:42;;;;;;;3.75;2.50;;;;;;;;;;6206018;23;20362;-85
2021/10/09 14:01:09;;;;;;;3.95;2.70;;;;;;;;;;6206726;23;20366;-84
2021/10/09 14:03:37;;;;;;;2.55;2.30;;;;;;;;;;6204827;23;20381;-85
2021/10/09 14:06:04;;;;;;;4.97;2.70;;;;;;;;;;6206046;23;20404;-85
2021/10/09 14:08:31;;;;;;;8.68;3.13;;;;;;;;;;6205506;23;20369;-85
2021/10/09 14:11:00;;;;;;;5.90;3.30;;;;;;;;;;6204924;23;20752;-85
2021/10/09 14:13:29;;;;;;;7.33;2.70;;;;;;;;;;6206063;23;20361;-85
2021/10/09 14:15:57;;;;;;;7.18;3.38;;;;;;;;;;6205485;23;20382;-84
2021/10/09 14:18:25;;;;;;;7.22;3.17;;;;;;;;;;6204476;23;20373;-85
2021/10/09 14:20:54;;;;;;;8.73;3.78;;;;;;;;;;6204652;23;20373;-84
2021/10/09 14:23:22;;;;;;;7.82;3.60;;;;;;;;;;6204257;23;20365;-85
2021/10/09 14:25:50;;;;;;;10.48;4.32;;;;;;;;;;6205218;23;20357;-85
2021/10/09 14:28:17;;;;;;;11.18;3.92;;;;;;;;;;6205212;23;20369;-86
2021/10/09 14:30:48;;;;;;;11.73;4.30;;;;;;;;;;6205484;23;21051;-83
2021/10/09 14:33:15;;;;;;;13.50;3.93;;;;;;;;;;6203499;23;20366;-84
2021/10/09 14:35:43;;;;;;;13.10;4.13;;;;;;;;;;6202609;23;20896;-86
2021/10/09 14:38:11;;;;;;;12.55;4.10;;;;;;;;;;6204387;23;20366;-84
2021/10/09 14:40:38;;;;;;;12.50;4.00;;;;;;;;;;6203952;23;20757;-84
2021/10/09 14:43:05;;;;;;;11.93;4.20;;;;;;;;;;6203781;23;20376;-81
2021/10/09 14:45:32;;;;;;;8.88;4.30;;;;;;;;;;6202582;23;20361;-81
2021/10/09 14:48:04;;;;;;;13.40;4.55;;;;;;;;;;6204043;23;20369;-81
2021/10/09 14:50:44;;;;;;;13.03;4.20;;;;;;;;;;6205173;23;20366;-83
2021/10/09 15:02:13;;;;;;;16.93;5.10;;;;;;;;;;6170076;23;20365;-83
2021/10/09 15:18:25;;;;;;;14.70;4.70;;;;;;;;;;6206941;23;20860;-84
2021/10/09 15:20:54;;;;;;;18.45;4.88;;;;;;;;;;6207525;23;20372;-83
2021/10/09 15:23:22;;;;;;;15.05;4.75;;;;;;;;;;6207245;23;20823;-83
2021/10/09 15:32:12;;;;;;;16.38;4.80;;;;;;;;;;5103318;27;20725;-82
2021/10/09 15:34:39;;;;;;;13.55;4.68;;;;;;;;;;5081605;28;20407;-79
2021/10/09 15:37:06;;;;;;;72.28;8.73;;;;;;;;;;5073200;28;20910;-82
2021/10/09 15:39:33;;;;;;;23.05;5.70;;;;;;;;;;5066366;28;20421;-87
2021/10/09 15:42:02;;;;;;;17.42;4.85;;;;;;;;;;5069637;28;20449;-81
2021/10/09 15:44:29;;;;;;;16.73;4.87;;;;;;;;;;5080762;28;20401;-82
2021/10/09 15:46:56;;;;;;;13.50;4.75;;;;;;;;;;5077255;28;20414;-82
2021/10/09 15:49:24;;;;;;;12.95;5.20;;;;;;;;;;5082003;28;20470;-82
2021/10/09 15:51:51;;;;;;;12.85;4.88;;;;;;;;;;5067886;28;20413;-82
2021/10/09 15:54:18;;;;;;;10.65;4.90;;;;;;;;;;5068790;28;20407;-81
2021/10/09 15:56:45;;;;;;;11.93;4.72;;;;;;;;;;5072804;28;20395;-82
2021/10/09 15:59:12;;;;;;;14.93;5.43;;;;;;;;;;5069444;28;20462;-81
2021/10/09 16:01:39;;;;;;;10.93;4.63;;;;;;;;;;5068222;28;20737;-82
2021/10/09 16:04:06;;;;;;;13.60;5.25;;;;;;;;;;5064601;28;20417;-82
2021/10/09 16:06:34;;;;;;;10.20;5.07;;;;;;;;;;5066565;28;20402;-83
2021/10/09 16:09:01;;;;;;;11.68;4.97;;;;;;;;;;5067679;28;20411;-83
2021/10/09 16:11:28;;;;;;;10.88;4.82;;;;;;;;;;5065876;28;20415;-84
2021/10/09 16:13:57;;;;;;;11.52;5.20;;;;;;;;;;5065451;28;21115;-83
2021/10/09 16:16:24;;;;;;;9.70;5.00;;;;;;;;;;5073469;28;20488;-84
2021/10/09 16:18:50;;;;;;;8.32;4.75;;;;;;;;;;5066421;28;20411;-84
2021/10/09 16:21:17;;;;;;;10.65;5.10;;;;;;;;;;5072682;28;20421;-83
2021/10/09 16:23:45;;;;;;;11.30;4.97;;;;;;;;;;5070995;28;20499;-84
2021/10/09 16:26:12;;;;;;;10.00;5.40;;;;;;;;;;5065926;28;20397;-83
2021/10/09 16:28:39;;;;;;;12.82;5.25;;;;;;;;;;5068587;28;20943;-83
2021/10/09 16:31:08;;;;;;;10.15;5.50;;;;;;;;;;5072818;28;20408;-85
2021/10/09 16:33:35;;;;;;;9.77;5.60;;;;;;;;;;5072937;28;20414;-82
2021/10/09 16:36:01;;;;;;;13.50;5.90;;;;;;;;;;5075412;28;20410;-84
2021/10/09 16:38:29;;;;;;;12.35;5.80;;;;;;;;;;5074332;28;21054;-84
2021/10/09 16:40:57;;;;;;;10.87;5.97;;;;;;;;;;5062052;28;21041;-84
2021/10/09 16:43:24;;;;;;;11.27;5.93;;;;;;;;;;5063422;28;20894;-83
2021/10/09 16:45:50;;;;;;;12.60;6.38;;;;;;;;;;5058080;28;20425;-85
2021/10/09 16:48:17;;;;;;;9.63;5.90;;;;;;;;;;5062134;28;20440;-84
2021/10/09 16:50:44;;;;;;;11.57;5.75;;;;;;;;;;5055780;28;20408;-84
2021/10/09 16:53:11;;;;;;;11.60;5.90;;;;;;;;;;5062807;28;20403;-83
2021/10/09 16:55:38;;;;;;;11.43;5.97;;;;;;;;;;5062803;28;20408;-81
2021/10/09 16:58:06;;;;;;;14.70;6.25;;;;;;;;;;5058377;28;20439;-82
2021/10/09 17:00:33;;;;;;;13.52;6.10;;;;;;;;;;5061779;28;20421;-83
2021/10/09 17:02:59;;;;;;;14.13;5.95;;;;;;;;;;5062165;28;20463;-82
2021/10/09 17:05:26;;;;;;;13.38;6.45;;;;;;;;;;5067192;28;20405;-82
2021/10/09 17:07:53;;;;;;;14.15;6.70;;;;;;;;;;5061130;28;20402;-82
2021/10/09 17:10:20;;;;;;;11.38;6.63;;;;;;;;;;5064638;28;20456;-82
2021/10/09 17:12:47;;;;;;;11.90;6.53;;;;;;;;;;5063947;28;20413;-82
2021/10/09 17:15:15;;;;;;;13.27;6.38;;;;;;;;;;5059116;28;20446;-82
2021/10/09 17:17:42;;;;;;;20.83;7.47;;;;;;;;;;5063374;28;20835;-82
2021/10/09 17:20:10;;;;;;;12.75;6.50;;;;;;;;;;5058943;28;20406;-82
2021/10/09 17:22:36;;;;;;;14.57;7.03;;;;;;;;;;5063437;28;20919;-82
2021/10/09 17:25:04;;;;;;;16.50;8.25;;;;;;;;;;5057880;28;20394;-83
2021/10/09 17:27:32;;;;;;;20.13;12.20;;;;;;;;;;5060329;28;21022;-82
2021/10/09 17:29:59;;;;;;;18.15;10.57;;;;;;;;;;5052290;28;20980;-84
2021/10/09 17:32:27;;;;;;;17.02;10.57;;;;;;;;;;5056656;28;20426;-83
2021/10/09 17:34:54;;;;;;;16.35;9.73;;;;;;;;;;5070899;28;20436;-88
2021/10/09 17:37:21;;;;;;;16.55;8.77;;;;;;;;;;5065596;28;20403;-84
2021/10/09 17:39:48;;;;;;;15.98;8.60;;;;;;;;;;5062163;28;20417;-83
2021/10/09 17:42:15;;;;;;;15.98;8.20;;;;;;;;;;5064656;28;20495;-83
2021/10/09 17:44:41;;;;;;;18.73;7.95;;;;;;;;;;5066197;28;20939;-83
2021/10/09 17:47:09;;;;;;;13.10;8.13;;;;;;;;;;5066509;28;20398;-83
2021/10/09 17:49:37;;;;;;;17.37;7.90;;;;;;;;;;5063275;28;20503;-83
2021/10/09 17:52:04;;;;;;;15.32;7.80;;;;;;;;;;5064829;28;20908;-84
2021/10/09 17:54:31;;;;;;;12.00;8.00;;;;;;;;;;5065816;28;20410;-83
2021/10/09 17:56:59;;;;;;;10.83;7.00;;;;;;;;;;5061919;28;20402;-85
2021/10/09 17:59:26;;;;;;;17.08;7.78;;;;;;;;;;5058297;28;20410;-82
2021/10/09 18:01:53;;;;;;;16.40;7.83;;;;;;;;;;5055830;28;20526;-83
2021/10/09 18:04:20;;;;;;;13.90;8.17;;;;;;;;;;5062366;28;20436;-82
2021/10/09 18:06:49;;;;;;;16.77;8.70;;;;;;;;;;5055892;28;20401;-85
2021/10/09 18:09:16;;;;;;;14.40;8.65;;;;;;;;;;5060901;28;20458;-81
2021/10/09 18:11:43;;;;;;;14.33;9.73;;;;;;;;;;5060791;28;20411;-81